• Join FlightAware (Why Join?)
  • Login
  • US Flag 
03:05PM EDT


 

Airport Tracker/Info


-or-


 

Live Flight TrackerFlight Track Log ✈ AAY1029 ✈ 26-Oct-2013 ✈ KOAK - KBLI

Flight Track Log - Related Links

Times and Time Zones

All times are in EDT time to prevent confusion due to time zone crossing. See the AAY1029 flight status page for this flight to view local times or setup timezone preferences in your user account.

Time Position Orientation Groundspeed Altitude Reporting Facility
EDT Latitude Longitude Course Direction KTS MPH feet Rate Location/Type
02:35PM 37.7264 -122.2525 309° West 163 188 1,000  Level Oakland Center
02:36PM 37.7636 -122.3114 309° West 223 257 2,500 1,980 Climbing Oakland Center
02:37PM 37.8189 -122.3711 320° Northwest 264 304 5,100 2,580 Climbing Oakland Center
02:38PM 37.8858 -122.3161 33° Northeast 277 319 7,900 2,400 Climbing Oakland Center
02:39PM 37.9264 -122.2339 58° Northeast 277 319 10,100 1,800 Climbing Oakland Center
02:40PM 38.0097 -122.2056 15° North 337 388 11,600 1,800 Climbing Oakland Center
02:41PM 38.1100 -122.1997 North 361 415 13,900 2,280 Climbing Oakland Center
02:42PM 38.2131 -122.2044 358° North 371 427 16,300 2,040 Climbing Oakland Center
02:43PM 38.3186 -122.2022 North 380 437 18,100 1,620 Climbing Oakland Center
02:44PM 38.4286 -122.2081 358° North 394 453 19,700 1,860 Climbing Oakland Center
02:45PM 38.5636 -122.2086 360° North 405 466 22,000 1,740 Climbing Oakland Center
02:46PM 38.6786 -122.2100 359° North 412 474 23,300 1,380 Climbing Oakland Center
02:47PM 38.7958 -122.2122 359° North 422 486 24,900 1,260 Climbing Oakland Center
02:48PM 38.9172 -122.2144 359° North 429 494 26,000 1,140 Climbing Oakland Center
02:49PM 39.0411 -122.2183 359° North 439 505 27,300 1,260 Climbing Oakland Center
02:50PM 39.1842 -122.2172 360° North 451 519 28,600 1,200 Climbing Oakland Center
02:51PM 39.2931 -122.2244 357° North 451 519 29,800 660 Climbing Oakland Center
02:52PM 39.4186 -122.2231 360° North 450 518 30,000 60 Climbing Oakland Center
02:53PM 39.5575 -122.2294 358° North 447 514 30,000  Level Oakland Center
02:54PM 39.6817 -122.2233 North 446 513 30,000  Level Oakland Center
02:55PM 39.8044 -122.2297 358° North 444 511 30,000  Level Oakland Center
02:57PM 39.9269 -122.2261 North 442 509 30,000  Level Oakland Center
02:58PM 40.0736 -122.2272 360° North 444 511 30,000  Level Oakland Center
02:59PM 40.1919 -122.2278 360° North 446 513 30,000  Level Oakland Center
03:00PM 40.3125 -122.2281 360° North 445 512 30,000  Level Oakland Center
03:01PM 40.4344 -122.2294 360° North 444 511 30,000  Level Oakland Center
03:02PM 40.5558 -122.2325 359° North 439 505 30,000  Level Oakland Center
03:03PM 40.7031 -122.2319 360° North 439 505 30,000  Level Oakland Center
03:04PM 40.8233 -122.2336 359° North 435 501 30,000  Level Oakland Center
03:05PM 40.9444 -122.2325 360° North 435 501 30,000  Level Oakland Center
03:06PM 41.0644 -122.2322 360° North 432 497 30,000  Level Oakland Center
03:07PM 41.1861 -122.2367 358° North 437 503 30,000  Level Oakland Center
03:08PM 41.3067 -122.2369 360° North 435 501 30,000  Level Oakland Center
03:08PM 41.3781 -122.2356 North 436 502 30,000  Level Seattle Center
03:09PM 41.4867 -122.2403 358° North 436 502 30,000  Level Seattle Center
03:10PM 41.6069 -122.2358 North 434 499 30,000  Level Seattle Center
03:11PM 41.7281 -122.2406 358° North 433 498 30,000  Level Seattle Center
03:12PM 41.8753 -122.2375 North 438 504 30,000  Level Seattle Center
03:13PM 41.9981 -122.2406 359° North 437 503 30,000  Level Seattle Center
03:14PM 42.1208 -122.2378 North 438 504 30,000  Level Seattle Center
03:15PM 42.2428 -122.2389 360° North 435 501 30,000  Level Seattle Center
03:16PM 42.3625 -122.2378 360° North 429 494 30,000  Level Seattle Center
03:17PM 42.4833 -122.2422 358° North 431 496 30,000  Level Seattle Center
03:18PM 42.6056 -122.2400 North 436 502 30,000  Level Seattle Center
03:19PM 42.7275 -122.2433 359° North 438 504 30,000  Level Seattle Center
03:21PM 42.8381 -122.2406 North 441 507 30,000  Level Seattle Center
03:22PM 42.9592 -122.2472 358° North 446 513 30,000  Level Seattle Center
03:23PM 43.1069 -122.2411 North 443 510 30,000  Level Seattle Center
03:24PM 43.2289 -122.2481 358° North 440 506 30,000  Level Seattle Center
03:25PM 43.3511 -122.2444 North 443 510 30,000  Level Seattle Center
03:26PM 43.4725 -122.2483 359° North 439 505 30,000  Level Seattle Center
03:27PM 43.5953 -122.2481 360° North 443 510 30,000  Level Seattle Center
03:28PM 43.7192 -122.2481 360° North 446 513 30,000  Level Seattle Center
03:29PM 43.8431 -122.2483 360° North 453 521 30,000  Level Seattle Center
03:30PM 43.9669 -122.2486 360° North 449 517 30,000  Level Seattle Center
03:31PM 44.0900 -122.2508 359° North 447 514 30,000  Level Seattle Center
03:32PM 44.2172 -122.2517 360° North 455 524 30,000  Level Seattle Center
03:33PM 44.3431 -122.2544 359° North 458 527 30,000  Level Seattle Center
03:34PM 44.4928 -122.2514 North 453 521 30,000  Level Seattle Center
03:35PM 44.6197 -122.2567 358° North 456 525 30,000  Level Seattle Center
03:36PM 44.7450 -122.2536 North 455 524 30,000  Level Seattle Center
03:37PM 44.8725 -122.2594 358° North 460 529 30,000  Level Seattle Center
03:38PM 44.9928 -122.2558 North 452 520 30,000  Level Seattle Center
03:39PM 45.1181 -122.2589 359° North 452 520 30,000  Level Seattle Center
03:40PM 45.2467 -122.2558 North 462 532 30,000  Level Seattle Center
03:41PM 45.3717 -122.2622 358° North 455 524 30,000  Level Seattle Center
03:42PM 45.4972 -122.2586 North 454 522 30,000  Level Seattle Center
03:43PM 45.6211 -122.2636 358° North 450 518 30,000  Level Seattle Center
03:44PM 45.7728 -122.2594 North 455 524 30,000  Level Seattle Center
03:45PM 45.8983 -122.2644 358° North 453 521 30,000  Level Seattle Center
03:46PM 46.0269 -122.2581 North 463 533 30,000  Level Seattle Center
03:47PM 46.1536 -122.2661 357° North 458 527 30,000  Level Seattle Center
03:48PM 46.2903 -122.2619 North 452 520 30,000  Level Seattle Center
03:49PM 46.4139 -122.2692 358° North 446 513 30,000  Level Seattle Center
03:50PM 46.5394 -122.2636 North 451 519 30,000  Level Seattle Center
03:51PM 46.6653 -122.2692 358° North 452 520 30,000  Level Seattle Center
03:52PM 46.7878 -122.2678 360° North 444 511 30,000  Level Seattle Center
03:53PM 46.9097 -122.2706 359° North 440 506 30,000  Level Seattle Center
03:54PM 47.0267 -122.2650 North 424 488 30,000  Level Seattle Center
03:55PM 47.1431 -122.2719 358° North 420 483 30,000  Level Seattle Center
03:56PM 47.2611 -122.2694 North 425 489 30,000 -60 Level Seattle Center
03:57PM 47.3797 -122.2767 358° North 430 495 29,900 -1,020 Descending Seattle Center
03:58PM 47.4908 -122.2700 North 407 468 28,000 -2,160 Descending Seattle Center
03:59PM 47.6197 -122.2769 358° North 396 456 25,600 -2,280 Descending Seattle Center
04:00PM 47.7250 -122.2719 North 394 453 23,500 -2,040 Descending Seattle Center
04:01PM 47.8306 -122.2772 358° North 389 448 21,500 -2,160 Descending Seattle Center
04:02PM 47.9350 -122.2786 359° North 378 435 19,200 -2,160 Descending Seattle Center
04:03PM 48.0411 -122.3139 347° North 393 452 17,200 -1,680 Descending Seattle Center
04:04PM 48.1225 -122.3297 353° North 399 459 16,400 -1,020 Descending Seattle Center
04:04PM 48.1494 -122.3389 347° North 396 456 16,200 -1,200 Descending Seattle Center
04:05PM 48.2439 -122.3758 345° North 394 453 15,100 -1,320 Descending Seattle Center
04:05PM 48.2556 -122.3781 353° North 392 451 14,900 -2,640 Descending Seattle Center
04:06PM 48.3758 -122.4031 352° North 384 442 12,000 -2,640 Descending Seattle Center
04:06PM 48.3608 -122.4011 175° South 383 441 12,300 -1,620 Climbing Seattle Center
04:07PM 48.4747 -122.4394 347° North 367 422 10,400 -1,800 Descending Seattle Center
04:07PM 48.4614 -122.4350 168° South 373 429 10,500 -1,320 Climbing Seattle Center
04:08PM 48.5578 -122.4583 351° North 287 330 9,100 -1,500 Descending Seattle Center
04:08PM 48.5644 -122.4614 343° North 320 368 9,000 -2,100 Descending Seattle Center
04:09PM 48.6222 -122.5014 335° Northwest 273 314 7,200 -2,100 Descending Seattle Center
04:09PM 48.6339 -122.5111 331° Northwest 290 334 6,900 -1,860 Descending Seattle Center
04:10PM 48.7072 -122.5472 342° North 280 322 5,100 -1,440 Descending Seattle Center
04:11PM 48.7747 -122.5850 340° North 270 311 4,000 -780 Descending Seattle Center
04:12PM 48.8389 -122.6144 343° North 256 295 3,600 -360 Descending Seattle Center
04:13PM 48.9042 -122.6336 349° North 254 292 3,300 -780 Descending Seattle Center
04:14PM 48.9167 -122.5500 77° East 190 219 2,000 -780 Descending Vancouver Center
04:15PM 48.8667 -122.5333 168° South 180 207 1,700 -600 Descending Vancouver Center
04:16PM 48.8167 -122.5333 180° South 150 173 900 -720 Descending Vancouver Center
04:17PM 48.7833 -122.5333 180° South 150 173 300 -600 Descending Vancouver Center